Time;durP1;ratioP1;P1;durP2;ratioP2;P2;SDS_P1;SDS_P2;PMS_P1;PMS_P2;Temp;Humidity;BMP_temperature;BMP_pressure;BME280_temperature;BME280_humidity;BME280_pressure;Samples;Min_cycle;Max_cycle;Signal;HPM_P1;HPM_P2
2022/05/20 00:08:20;;;;;;;4.90;1.83;;;12.80;99.90;;;;;;20740547;28;20045;-40
2022/05/20 00:18:21;;;;;;;4.50;2.65;;;13.00;99.90;;;;;;20730346;28;20053;-40
2022/05/20 00:28:25;;;;;;;8.20;2.45;;;12.90;99.90;;;;;;20731420;28;20082;-40
2022/05/20 00:38:26;;;;;;;4.85;2.50;;;12.90;99.90;;;;;;20731317;28;20076;-40
2022/05/20 00:48:29;;;;;;;5.10;2.53;;;12.80;99.90;;;;;;20727106;28;20034;-40
2022/05/20 00:58:30;;;;;;;4.53;2.65;;;12.80;99.90;;;;;;20732179;28;20758;-40
2022/05/20 01:08:32;;;;;;;3.33;2.03;;;12.70;99.90;;;;;;20735680;28;20049;-40
2022/05/20 01:18:37;;;;;;;3.72;2.13;;;12.80;99.90;;;;;;20731673;28;20053;-40
2022/05/20 01:28:38;;;;;;;2.92;1.95;;;12.80;99.90;;;;;;20722812;28;20401;-40
2022/05/20 01:38:39;;;;;;;3.90;1.52;;;12.70;99.90;;;;;;20726444;28;20142;-40
2022/05/20 01:48:48;;;;;;;5.25;3.05;;;12.50;99.90;;;;;;20730325;28;20029;-40
2022/05/20 01:59:10;;;;;;;4.03;2.33;;;12.40;99.90;;;;;;20725401;28;20057;-40
2022/05/20 02:09:17;;;;;;;4.57;2.10;;;12.50;99.90;;;;;;20726292;28;21504;-40
2022/05/20 02:19:27;;;;;;;3.75;2.08;;;12.40;99.90;;;;;;20723016;28;20484;-40
2022/05/20 02:29:48;;;;;;;4.28;2.08;;;12.30;99.90;;;;;;20732796;28;20038;-40
2022/05/20 02:39:51;;;;;;;4.95;2.30;;;12.20;99.90;;;;;;20732391;28;20060;-40
2022/05/20 02:49:52;;;;;;;3.92;2.25;;;12.20;99.90;;;;;;20726908;28;20045;-40
2022/05/20 03:10:13;;;;;;;4.85;2.30;;;12.00;99.90;;;;;;20723064;28;20585;-40
2022/05/20 03:20:14;;;;;;;6.10;2.92;;;12.00;99.90;;;;;;20723045;28;20045;-40
2022/05/20 03:30:16;;;;;;;5.60;2.45;;;11.80;99.90;;;;;;20718647;28;20464;-39
2022/05/20 03:40:17;;;;;;;4.47;2.47;;;11.80;99.90;;;;;;20721797;28;20052;-40
2022/05/20 03:50:18;;;;;;;5.85;2.75;;;11.80;99.90;;;;;;20735179;28;20064;-40
2022/05/20 04:00:20;;;;;;;3.50;2.22;;;11.80;99.90;;;;;;20745176;28;20052;-39
2022/05/20 04:10:23;;;;;;;3.67;2.28;;;11.90;99.90;;;;;;20735079;28;20443;-40
2022/05/20 04:20:24;;;;;;;4.55;2.85;;;12.00;99.90;;;;;;20732266;28;20045;-40
2022/05/20 04:30:25;;;;;;;6.47;3.33;;;12.10;99.90;;;;;;20733945;28;20536;-40
2022/05/20 04:40:26;;;;;;;3.50;2.22;;;12.30;99.90;;;;;;20745494;28;20049;-40
2022/05/20 04:50:27;;;;;;;6.68;3.17;;;12.30;99.90;;;;;;20757402;28;20040;-40
2022/05/20 05:00:30;;;;;;;10.63;3.70;;;12.40;99.90;;;;;;20743107;28;20127;-40
2022/05/20 05:10:31;;;;;;;6.53;2.80;;;12.70;99.90;;;;;;20759219;28;20979;-40
2022/05/20 05:20:33;;;;;;;6.35;3.28;;;12.90;99.90;;;;;;20759203;28;20175;-40
2022/05/20 05:30:35;;;;;;;6.80;3.70;;;13.00;99.90;;;;;;20756341;28;20041;-39
2022/05/20 05:40:36;;;;;;;6.28;3.65;;;13.10;99.90;;;;;;20737543;28;20056;-39
2022/05/20 05:50:40;;;;;;;6.28;2.85;;;13.30;99.90;;;;;;20736820;28;20030;-39
2022/05/20 06:00:42;;;;;;;5.82;3.00;;;13.60;99.90;;;;;;20747372;28;20053;-39
2022/05/20 06:10:44;;;;;;;7.97;4.78;;;13.90;99.90;;;;;;20743314;28;20053;-39
2022/05/20 06:20:45;;;;;;;6.72;3.83;;;14.10;99.90;;;;;;20726608;28;20049;-39
2022/05/20 06:30:46;;;;;;;4.88;2.30;;;14.30;99.90;;;;;;20731980;28;20041;-39
2022/05/20 06:40:49;;;;;;;3.47;2.65;;;14.70;99.90;;;;;;20732952;28;20053;-39
2022/05/20 06:50:50;;;;;;;2.95;1.48;;;15.00;99.90;;;;;;20706069;28;20499;-39
2022/05/20 07:00:52;;;;;;;5.82;2.08;;;15.40;99.90;;;;;;20696923;28;20037;-39
2022/05/20 07:10:53;;;;;;;3.83;1.45;;;15.50;99.90;;;;;;20713983;28;20045;-39
2022/05/20 07:20:54;;;;;;;3.38;1.83;;;15.60;99.90;;;;;;20691678;28;20104;-39
2022/05/20 07:30:55;;;;;;;3.20;1.73;;;15.60;99.90;;;;;;20684249;28;20892;-39
2022/05/20 07:40:57;;;;;;;3.55;1.70;;;15.50;99.90;;;;;;20687307;28;20053;-39
2022/05/20 07:51:09;;;;;;;6.32;2.95;;;15.70;99.90;;;;;;20694923;28;20596;-39
2022/05/20 08:01:10;;;;;;;4.53;2.00;;;16.00;99.90;;;;;;20696734;28;20422;-39
2022/05/20 08:11:11;;;;;;;2.70;1.70;;;16.40;99.90;;;;;;20710681;28;20974;-39
2022/05/20 08:21:15;;;;;;;4.07;2.47;;;16.60;99.90;;;;;;20713599;28;20503;-39
2022/05/20 08:31:16;;;;;;;2.80;1.65;;;16.90;99.90;;;;;;20712544;28;20660;-39
2022/05/20 08:41:33;;;;;;;2.90;1.38;;;17.10;99.90;;;;;;20710672;28;20042;-39
2022/05/20 08:51:34;;;;;;;3.55;1.60;;;17.30;99.90;;;;;;20712785;28;20385;-39
2022/05/20 09:01:42;;;;;;;3.67;2.33;;;17.60;99.90;;;;;;20717862;28;20074;-39
2022/05/20 09:11:44;;;;;;;;;;;17.90;99.90;;;;;;20714276;28;20049;-39
2022/05/20 09:21:58;;;;;;;2.67;1.13;;;18.20;99.90;;;;;;20707029;28;19933;-39
2022/05/20 09:32:03;;;;;;;2.65;1.70;;;18.50;99.90;;;;;;20707330;28;20124;-39
2022/05/20 09:42:15;;;;;;;4.60;1.40;;;18.70;99.90;;;;;;20714253;28;20520;-40
2022/05/20 09:52:23;;;;;;;2.10;1.25;;;18.60;99.90;;;;;;20715933;28;20339;-39
2022/05/20 10:02:43;;;;;;;2.08;1.25;;;18.90;99.90;;;;;;20713309;28;20065;-40
2022/05/20 10:12:49;;;;;;;5.17;1.33;;;19.20;99.90;;;;;;20734556;28;20052;-39
2022/05/20 10:22:56;;;;;;;2.30;0.93;;;19.20;99.90;;;;;;20749567;28;20056;-39
2022/05/20 10:33:06;;;;;;;1.90;1.17;;;19.10;99.90;;;;;;20748078;28;20073;-39
2022/05/20 10:43:18;;;;;;;3.78;0.95;;;19.40;99.90;;;;;;20747119;28;20443;-40
2022/05/20 10:53:56;;;;;;;1.98;0.90;;;19.60;99.90;;;;;;20748124;28;21351;-39
2022/05/20 11:04:20;;;;;;;2.67;1.40;;;19.80;99.90;;;;;;20736656;28;20649;-39
2022/05/20 11:14:49;;;;;;;6.30;1.65;;;19.90;99.90;;;;;;20728768;28;20497;-39
2022/05/20 11:25:21;;;;;;;4.50;1.63;;;20.00;99.90;;;;;;20722231;28;20072;-39
2022/05/20 11:35:50;;;;;;;2.33;1.33;;;20.00;99.90;;;;;;20707008;28;21452;-39
2022/05/20 11:46:09;;;;;;;2.17;1.25;;;20.30;99.90;;;;;;20685243;28;20045;-39
2022/05/20 11:56:31;;;;;;;5.60;1.55;;;20.50;99.90;;;;;;20717587;28;20158;-39
2022/05/20 12:06:35;;;;;;;2.42;1.20;;;20.20;99.90;;;;;;20689789;28;21665;-39
2022/05/20 12:17:03;;;;;;;2.40;0.77;;;19.90;99.90;;;;;;20701308;28;20517;-39
2022/05/20 12:27:11;;;;;;;2.80;1.40;;;19.60;99.90;;;;;;20693089;28;20450;-39
2022/05/20 12:37:40;;;;;;;3.40;1.92;;;19.30;99.90;;;;;;20691074;28;20040;-40
2022/05/20 12:47:41;;;;;;;3.10;1.77;;;18.00;99.90;;;;;;20690600;28;20034;-40
2022/05/20 12:57:54;;;;;;;5.35;1.85;;;16.60;99.90;;;;;;20700947;28;20126;-39
2022/05/20 13:07:57;;;;;;;5.43;2.30;;;16.10;99.90;;;;;;20705717;28;20101;-40
2022/05/20 13:18:11;;;;;;;3.13;2.08;;;15.90;99.90;;;;;;20717626;28;20066;-39
2022/05/20 13:28:22;;;;;;;4.38;2.35;;;16.00;99.90;;;;;;20711443;28;20396;-39
2022/05/20 13:38:27;;;;;;;6.60;2.70;;;15.90;99.90;;;;;;20699359;28;20457;-39
2022/05/20 13:59:37;;;;;;;3.28;2.25;;;15.60;99.90;;;;;;20705180;28;20048;-40
2022/05/20 14:09:41;;;;;;;4.90;3.00;;;15.50;99.90;;;;;;20565677;28;20077;-39
2022/05/20 14:19:48;;;;;;;5.90;3.60;;;15.50;99.90;;;;;;20698673;28;20049;-39
2022/05/20 14:29:49;;;;;;;6.60;3.58;;;15.40;99.90;;;;;;20704156;28;20080;-39
2022/05/20 14:39:56;;;;;;;4.97;3.17;;;15.20;99.90;;;;;;20698870;28;20033;-39
2022/05/20 14:50:04;;;;;;;9.10;4.07;;;15.10;99.90;;;;;;20698825;28;20036;-39
2022/05/20 15:00:12;;;;;;;2.72;0.82;;;15.30;99.90;;;;;;20694521;28;20480;-39
2022/05/20 15:10:16;;;;;;;2.60;1.58;;;14.70;99.90;;;;;;20696068;28;20041;-39
2022/05/20 15:20:17;;;;;;;3.90;1.60;;;14.00;99.90;;;;;;20687761;28;20604;-40
2022/05/20 15:30:18;;;;;;;6.88;1.95;;;13.90;99.90;;;;;;20685684;28;22671;-40
2022/05/20 15:40:25;;;;;;;2.50;1.08;;;13.90;99.90;;;;;;20689009;28;20757;-40
2022/05/20 15:50:26;;;;;;;4.97;1.90;;;13.80;99.90;;;;;;20692772;28;20064;-39
2022/05/20 16:00:28;;;;;;;3.55;1.35;;;14.00;99.90;;;;;;20716450;28;20060;-39
2022/05/20 16:10:33;;;;;;;4.75;1.58;;;14.10;99.90;;;;;;20718398;28;20034;-39
2022/05/20 16:20:37;;;;;;;2.08;1.45;;;14.40;99.90;;;;;;20720733;28;20054;-40
2022/05/20 16:30:38;;;;;;;2.42;1.42;;;14.30;99.90;;;;;;20735884;28;20055;-39
2022/05/20 16:40:39;;;;;;;3.10;1.50;;;14.30;99.90;;;;;;20728890;28;20626;-39
2022/05/20 16:50:43;;;;;;;3.47;2.15;;;13.90;99.90;;;;;;20723334;28;20615;-39
2022/05/20 17:11:04;;;;;;;2.38;1.35;;;13.40;99.90;;;;;;20716084;28;21823;-39
2022/05/20 17:24:21;;;;;;;4.05;1.17;;;13.30;99.90;;;;;;20709843;28;20121;-39
2022/05/20 17:31:26;;;;;;;0.77;0.20;;;13.40;99.90;;;;;;20723089;28;20648;-39
2022/05/20 17:41:29;;;;;;;1.02;0.20;;;13.20;99.90;;;;;;20718294;28;20050;-39
2022/05/20 17:51:31;;;;;;;1.83;0.50;;;13.10;99.90;;;;;;20727620;28;20037;-39
2022/05/20 18:01:32;;;;;;;0.82;0.22;;;12.80;99.90;;;;;;20710330;28;20050;-40
2022/05/20 18:11:33;;;;;;;1.75;0.32;;;12.70;99.90;;;;;;20707671;28;20042;-40
2022/05/20 18:21:35;;;;;;;1.20;0.63;;;12.60;99.90;;;;;;20709513;28;20056;-39
2022/05/20 18:31:36;;;;;;;2.38;1.45;;;12.60;99.90;;;;;;20705127;28;20041;-40
2022/05/20 18:41:37;;;;;;;1.58;0.73;;;12.60;99.90;;;;;;20699091;28;20053;-40
2022/05/20 18:51:38;;;;;;;5.13;1.60;;;12.70;99.90;;;;;;20707712;28;20045;-39
2022/05/20 19:01:39;;;;;;;3.03;1.50;;;12.70;99.90;;;;;;20684888;28;20046;-39
2022/05/20 19:11:40;;;;;;;2.33;1.02;;;12.70;99.90;;;;;;20695241;28;20045;-39
2022/05/20 19:21:41;;;;;;;0.55;0.30;;;12.70;99.90;;;;;;20689233;28;20416;-39
2022/05/20 19:31:45;;;;;;;2.83;0.70;;;12.70;99.90;;;;;;20686365;28;20191;-39
2022/05/20 19:41:46;;;;;;;2.45;1.10;;;12.60;99.90;;;;;;20675160;28;20045;-40
2022/05/20 19:51:51;;;;;;;3.42;0.80;;;12.60;99.90;;;;;;20679570;28;20037;-40
2022/05/20 20:01:53;;;;;;;3.38;0.60;;;12.50;99.90;;;;;;20686967;28;20045;-39
2022/05/20 20:11:55;;;;;;;3.05;1.17;;;12.50;99.90;;;;;;20709850;28;20045;-40
2022/05/20 20:32:16;;;;;;;11.98;1.08;;;12.50;99.90;;;;;;20695990;28;20068;-39
2022/05/20 20:42:17;;;;;;;2.55;0.90;;;12.40;99.90;;;;;;20693730;28;20542;-39
2022/05/20 20:52:18;;;;;;;2.28;1.00;;;12.20;99.90;;;;;;20689248;28;20060;-40
2022/05/20 21:02:20;;;;;;;2.33;1.25;;;12.10;99.90;;;;;;20699045;28;20441;-40
2022/05/20 21:12:21;;;;;;;3.30;2.00;;;12.00;99.90;;;;;;20711477;28;20061;-40
2022/05/20 21:22:23;;;;;;;3.20;1.45;;;12.00;99.90;;;;;;20714273;28;20074;-39
2022/05/20 21:32:24;;;;;;;2.33;1.25;;;12.00;99.90;;;;;;20702632;28;20034;-39
2022/05/20 21:42:25;;;;;;;4.72;1.65;;;12.00;99.90;;;;;;20692841;28;20073;-39
2022/05/20 21:52:26;;;;;;;2.90;1.38;;;12.10;99.90;;;;;;20696003;28;20037;-39
2022/05/20 22:12:48;;;;;;;10.27;1.38;;;12.20;99.90;;;;;;20693877;28;20049;-40
2022/05/20 22:22:51;;;;;;;2.95;1.38;;;12.20;99.90;;;;;;20700690;28;20353;-39
2022/05/20 22:32:52;;;;;;;5.18;2.40;;;12.10;99.90;;;;;;20692514;28;20042;-39
2022/05/20 22:42:55;;;;;;;6.50;1.73;;;12.00;99.90;;;;;;20690337;28;20042;-39
2022/05/20 22:52:56;;;;;;;3.65;2.13;;;11.90;99.90;;;;;;20720717;28;20508;-39
2022/05/20 23:02:57;;;;;;;3.25;2.22;;;11.90;99.90;;;;;;20684182;28;20072;-40
2022/05/20 23:12:58;;;;;;;5.28;2.72;;;12.00;99.90;;;;;;20686373;28;20057;-40
2022/05/20 23:22:59;;;;;;;3.97;2.25;;;12.10;99.90;;;;;;20685117;28;20591;-39
2022/05/20 23:33:01;;;;;;;6.20;3.33;;;12.30;99.90;;;;;;20684401;28;20624;-39
2022/05/20 23:43:02;;;;;;;9.95;2.67;;;12.50;99.90;;;;;;20682809;28;20037;-39
2022/05/20 23:53:03;;;;;;;5.00;2.80;;;12.60;99.90;;;;;;20682356;28;20045;-39
